createdAt,value
2023-02-24T00:02:06.149Z,77.59
2023-02-24T00:04:36.170Z,78.07
2023-02-24T00:07:03.405Z,78.56
2023-02-24T00:09:31.468Z,78.46
2023-02-24T00:12:11.404Z,78.45
2023-02-24T00:14:40.991Z,78.24
2023-02-24T00:17:09.540Z,78.82
2023-02-24T00:19:37.973Z,77.89
2023-02-24T00:22:07.255Z,77.66
2023-02-24T00:24:35.775Z,78.04
2023-02-24T00:27:08.192Z,77.61
2023-02-24T00:29:37.809Z,77.75
2023-02-24T00:32:07.927Z,77.66
2023-02-24T00:34:36.842Z,77.67
2023-02-24T00:37:07.105Z,77.58
2023-02-24T00:39:35.695Z,78.07
2023-02-24T00:42:06.181Z,78.71
2023-02-24T00:44:45.640Z,78.55
2023-02-24T00:47:16.397Z,78.65
2023-02-24T00:49:44.322Z,79.26
2023-02-24T00:52:14.256Z,79.19
2023-02-24T00:54:42.516Z,79.75
2023-02-24T00:57:11.257Z,79.96
2023-02-24T00:59:38.473Z,80.35
2023-02-24T01:02:07.291Z,80.17
2023-02-24T01:04:35.110Z,80.29
2023-02-24T01:07:02.442Z,80.62
2023-02-24T01:09:32.246Z,80.93
2023-02-24T01:12:18.500Z,80.88
2023-02-24T01:14:47.889Z,80.89
2023-02-24T01:17:18.308Z,81.13
2023-02-24T01:19:47.419Z,81.31
2023-02-24T01:22:16.613Z,81.38
2023-02-24T01:24:44.927Z,82.15
2023-02-24T01:27:14.038Z,81.90
2023-02-24T01:29:41.469Z,82.12
2023-02-24T01:32:20.334Z,81.80
2023-02-24T01:34:48.297Z,81.75
2023-02-24T01:37:16.592Z,82.08
2023-02-24T01:39:45.271Z,82.00
2023-02-24T01:42:16.794Z,82.45
2023-02-24T01:44:43.826Z,82.60
2023-02-24T01:47:12.141Z,82.98
2023-02-24T01:49:41.234Z,83.32
2023-02-24T01:52:11.392Z,83.23
2023-02-24T01:54:48.415Z,83.14
2023-02-24T01:57:19.974Z,83.19
2023-02-24T01:59:49.660Z,82.54
2023-02-24T02:02:18.656Z,82.27
2023-02-24T02:04:59.544Z,81.95
2023-02-24T02:07:29.870Z,81.58
2023-02-24T02:10:04.250Z,82.04
2023-02-24T02:12:37.083Z,82.21
2023-02-24T02:15:13.162Z,82.42
2023-02-24T02:18:06.070Z,82.48
2023-02-24T02:20:39.036Z,82.57
2023-02-24T02:23:11.827Z,82.46
2023-02-24T02:26:10.978Z,82.35
2023-02-24T02:29:11.943Z,82.52
2023-02-24T02:32:05.559Z,83.03
2023-02-24T02:35:08.507Z,82.82
2023-02-24T02:38:06.825Z,82.67
2023-02-24T02:40:48.257Z,82.52
2023-02-24T02:43:18.657Z,82.79
2023-02-24T02:46:05.682Z,82.73
2023-02-24T02:48:41.243Z,82.03
2023-02-24T02:51:12.314Z,81.82
2023-02-24T02:53:54.753Z,82.11
2023-02-24T02:56:30.698Z,82.02
2023-02-24T02:58:59.821Z,82.01
2023-02-24T03:01:36.635Z,81.93
2023-02-24T03:04:07.495Z,82.43
2023-02-24T03:06:41.816Z,81.90
2023-02-24T03:09:24.546Z,82.10
2023-02-24T03:11:59.384Z,81.51
2023-02-24T03:14:30.229Z,81.70
2023-02-24T03:16:59.401Z,81.65
2023-02-24T03:19:39.569Z,82.24
2023-02-24T03:22:24.920Z,82.51
2023-02-24T03:24:52.137Z,81.90
2023-02-24T03:27:31.216Z,82.16
2023-02-24T03:30:02.076Z,82.12
2023-02-24T03:32:44.119Z,81.76
2023-02-24T03:35:20.617Z,81.98
2023-02-24T03:37:49.949Z,81.33
2023-02-24T03:40:18.102Z,81.29
2023-02-24T03:42:48.660Z,81.38
2023-02-24T03:45:17.308Z,81.57
2023-02-24T03:47:47.433Z,81.56
2023-02-24T03:50:20.128Z,81.98
2023-02-24T03:52:51.151Z,82.04
2023-02-24T03:55:21.377Z,82.03
2023-02-24T03:58:00.214Z,81.66
2023-02-24T04:00:56.225Z,82.01
2023-02-24T04:03:51.243Z,82.54
2023-02-24T04:06:38.350Z,82.68
2023-02-24T04:09:29.438Z,82.53
2023-02-24T04:12:09.428Z,82.76
2023-02-24T04:15:04.857Z,82.99
2023-02-24T04:17:52.658Z,82.85
2023-02-24T04:20:23.965Z,83.89
2023-02-24T04:22:57.122Z,85.12
2023-02-24T04:25:26.934Z,86.71
2023-02-24T04:27:56.447Z,88.74
2023-02-24T04:30:27.451Z,89.31
2023-02-24T04:32:56.677Z,90.98
2023-02-24T04:35:26.847Z,91.58
2023-02-24T04:37:55.223Z,91.89
2023-02-24T04:40:23.672Z,92.41
2023-02-24T04:42:53.461Z,92.41
2023-02-24T04:45:30.506Z,91.65
2023-02-24T04:48:02.942Z,90.52
2023-02-24T04:50:33.815Z,90.33
2023-02-24T04:53:12.942Z,89.14
2023-02-24T04:55:42.877Z,88.48
2023-02-24T04:58:19.402Z,87.49
2023-02-24T05:00:49.134Z,86.75
2023-02-24T05:03:17.553Z,85.67
2023-02-24T05:05:55.017Z,85.70
2023-02-24T05:08:21.934Z,85.59
2023-02-24T05:10:49.861Z,84.61
2023-02-24T05:13:20.598Z,84.59
2023-02-24T05:15:48.451Z,83.98
2023-02-24T05:18:20.393Z,83.66
2023-02-24T05:21:08.551Z,83.86
2023-02-24T05:23:44.281Z,83.29
2023-02-24T05:26:17.726Z,84.18
2023-02-24T05:28:50.062Z,85.91
2023-02-24T05:31:20.827Z,86.68
2023-02-24T05:33:54.612Z,88.40
2023-02-24T05:36:23.562Z,89.49
2023-02-24T05:38:57.970Z,90.47
2023-02-24T05:41:36.111Z,91.68
2023-02-24T05:44:08.703Z,93.03
2023-02-24T05:46:41.521Z,93.74
2023-02-24T05:49:23.542Z,93.95
2023-02-24T05:51:56.191Z,94.10
2023-02-24T05:54:31.517Z,94.20
2023-02-24T05:57:00.854Z,94.57
2023-02-24T05:59:33.593Z,94.47
2023-02-24T06:02:09.661Z,94.53
2023-02-24T06:04:45.822Z,94.90
2023-02-24T06:07:25.287Z,94.44
2023-02-24T06:09:57.288Z,94.33
2023-02-24T06:12:33.883Z,94.72
2023-02-24T06:15:02.318Z,94.24
2023-02-24T06:17:29.737Z,94.02
2023-02-24T06:19:56.783Z,93.02
2023-02-24T06:22:25.782Z,93.16
2023-02-24T06:24:54.813Z,92.17
2023-02-24T06:27:24.915Z,92.17
2023-02-24T06:29:54.114Z,91.91
2023-02-24T06:32:24.224Z,91.42
2023-02-24T06:34:51.951Z,91.66
2023-02-24T06:37:19.454Z,91.57
2023-02-24T06:39:46.550Z,91.86
2023-02-24T06:42:14.169Z,91.62
2023-02-24T06:44:41.619Z,92.46
2023-02-24T06:47:13.222Z,92.92
2023-02-24T06:49:41.670Z,92.80
2023-02-24T06:52:08.950Z,92.92
2023-02-24T06:54:36.309Z,94.24
2023-02-24T06:57:04.283Z,96.99
2023-02-24T06:59:32.292Z,99.59
2023-02-24T07:02:02.292Z,100.00
2023-02-24T07:04:29.645Z,100.00
2023-02-24T07:07:03.233Z,100.00
2023-02-24T07:09:31.600Z,100.00
2023-02-24T07:12:01.642Z,100.00
2023-02-24T07:14:31.908Z,100.00
2023-02-24T07:17:00.398Z,100.00
2023-02-24T07:19:30.118Z,100.00
2023-02-24T07:22:03.758Z,100.00
2023-02-24T07:24:36.700Z,100.00
2023-02-24T07:27:07.728Z,100.00
2023-02-24T07:29:36.293Z,100.00
2023-02-24T07:32:06.753Z,100.00
2023-02-24T07:34:34.751Z,100.00
2023-02-24T07:37:08.451Z,100.00
2023-02-24T07:39:37.626Z,100.00
2023-02-24T07:42:05.892Z,100.00
2023-02-24T07:44:33.255Z,100.00
2023-02-24T07:47:00.836Z,100.00
2023-02-24T07:49:30.370Z,100.00
2023-02-24T07:51:58.015Z,100.00
2023-02-24T07:54:30.356Z,100.00
2023-02-24T07:56:59.755Z,100.00
2023-02-24T07:59:30.064Z,100.00
2023-02-24T08:01:57.779Z,100.00
2023-02-24T08:04:28.756Z,100.00
2023-02-24T08:06:57.466Z,100.00
2023-02-24T08:09:45.491Z,100.00
2023-02-24T08:12:22.081Z,100.00
2023-02-24T08:14:51.800Z,100.00
2023-02-24T08:17:22.198Z,100.00
2023-02-24T08:20:01.166Z,100.00
2023-02-24T08:22:36.161Z,100.00
2023-02-24T08:25:08.945Z,100.00
2023-02-24T08:27:39.271Z,100.00
2023-02-24T08:30:08.376Z,100.00
2023-02-24T08:32:45.016Z,100.00
2023-02-24T08:35:18.327Z,100.00
2023-02-24T08:37:50.771Z,100.00
2023-02-24T08:40:33.054Z,100.00
2023-02-24T08:43:19.476Z,100.00
2023-02-24T08:45:50.969Z,100.00
2023-02-24T08:48:37.499Z,100.00
2023-02-24T08:51:18.192Z,100.00
2023-02-24T08:53:47.026Z,100.00
2023-02-24T08:56:24.293Z,100.00
2023-02-24T08:58:57.812Z,99.87
2023-02-24T09:01:36.683Z,97.53
2023-02-24T09:04:08.093Z,100.00
2023-02-24T09:06:40.561Z,100.00
2023-02-24T09:09:17.412Z,100.00
2023-02-24T09:11:56.840Z,100.00
2023-02-24T09:14:29.872Z,100.00
2023-02-24T09:17:02.640Z,100.00
2023-02-24T09:19:47.602Z,100.00
2023-02-24T09:22:31.991Z,100.00
2023-02-24T09:25:24.307Z,100.00
2023-02-24T09:27:56.282Z,100.00
2023-02-24T09:30:38.451Z,100.00
2023-02-24T09:33:18.959Z,100.00
2023-02-24T09:36:20.427Z,100.00
2023-02-24T09:39:02.260Z,100.00
2023-02-24T09:41:54.657Z,100.00
2023-02-24T09:44:41.455Z,99.30
2023-02-24T09:47:57.024Z,100.00
2023-02-24T09:51:02.703Z,97.08
2023-02-24T09:53:41.286Z,96.56
2023-02-24T09:56:23.693Z,95.16
2023-02-24T09:58:53.922Z,95.04
2023-02-24T10:01:53.321Z,97.79
2023-02-24T10:04:49.402Z,93.76
2023-02-24T10:07:40.786Z,92.99
2023-02-24T10:10:20.217Z,89.07
2023-02-24T10:12:51.192Z,90.04
2023-02-24T10:15:57.031Z,89.93
2023-02-24T10:18:33.196Z,83.90
2023-02-24T10:21:06.590Z,82.24
2023-02-24T10:23:56.797Z,79.78
2023-02-24T10:26:51.365Z,80.07
2023-02-24T10:30:19.895Z,80.30
2023-02-24T10:32:58.850Z,81.56
2023-02-24T10:35:33.840Z,80.02
2023-02-24T10:38:05.694Z,83.68
2023-02-24T10:40:45.132Z,82.07
2023-02-24T10:43:19.799Z,79.87
2023-02-24T10:45:48.019Z,80.74
2023-02-24T10:48:41.010Z,78.78
2023-02-24T10:51:20.403Z,82.69
2023-02-24T10:54:09.865Z,83.48
2023-02-24T10:56:44.610Z,82.00
2023-02-24T10:59:21.922Z,82.23
2023-02-24T11:02:24.807Z,80.72
2023-02-24T11:05:16.950Z,80.43
2023-02-24T11:07:54.060Z,81.30
2023-02-24T11:10:32.475Z,77.92
2023-02-24T11:13:19.734Z,76.98
2023-02-24T11:16:05.294Z,74.85
2023-02-24T11:18:33.134Z,75.74
2023-02-24T11:21:00.256Z,73.92
2023-02-24T11:23:35.207Z,76.62
2023-02-24T11:26:26.700Z,80.58
2023-02-24T11:29:11.016Z,78.19
2023-02-24T11:31:53.386Z,79.33
2023-02-24T11:34:35.082Z,81.28
2023-02-24T11:37:17.409Z,83.63
2023-02-24T11:40:02.329Z,84.54
2023-02-24T11:42:50.207Z,87.59
2023-02-24T11:45:25.569Z,88.50
2023-02-24T11:48:03.196Z,91.66
2023-02-24T11:50:44.057Z,91.85
2023-02-24T11:53:24.039Z,94.62
2023-02-24T11:56:26.240Z,97.72
2023-02-24T11:58:53.504Z,98.15
2023-02-24T12:01:35.286Z,100.00
2023-02-24T12:04:29.369Z,100.00
2023-02-24T12:07:13.078Z,100.00
2023-02-24T12:10:17.198Z,100.00
2023-02-24T12:13:06.428Z,100.00
2023-02-24T12:15:41.617Z,100.00
2023-02-24T12:18:39.435Z,100.00
2023-02-24T12:21:22.722Z,100.00
2023-02-24T12:23:53.770Z,100.00
2023-02-24T12:26:43.459Z,100.00
2023-02-24T12:29:25.311Z,100.00
2023-02-24T12:32:11.386Z,100.00
2023-02-24T12:34:53.176Z,100.00
2023-02-24T12:37:51.990Z,100.00
2023-02-24T12:40:33.544Z,100.00
2023-02-24T12:43:45.375Z,100.00
2023-02-24T12:46:33.524Z,100.00
2023-02-24T12:49:00.764Z,100.00
2023-02-24T12:51:30.848Z,100.00
2023-02-24T12:54:13.141Z,100.00
2023-02-24T12:56:45.778Z,100.00
2023-02-24T12:59:17.601Z,100.00
2023-02-24T13:01:55.375Z,100.00
2023-02-24T13:04:58.888Z,100.00
2023-02-24T13:07:45.864Z,100.00
2023-02-24T13:10:24.706Z,100.00
2023-02-24T13:13:04.202Z,100.00
2023-02-24T13:15:31.562Z,100.00
2023-02-24T13:17:59.204Z,99.88
2023-02-24T13:20:28.594Z,99.01
2023-02-24T13:22:56.383Z,98.86
2023-02-24T13:25:37.262Z,98.80
2023-02-24T13:28:22.440Z,98.18
2023-02-24T13:31:02.772Z,99.64
2023-02-24T13:33:36.894Z,98.96
2023-02-24T13:36:22.779Z,100.00
2023-02-24T13:38:51.054Z,100.00
2023-02-24T13:41:27.372Z,100.00
2023-02-24T13:43:58.595Z,100.00
2023-02-24T13:46:30.068Z,100.00
2023-02-24T13:49:35.922Z,100.00
2023-02-24T13:52:06.191Z,100.00
2023-02-24T13:54:39.243Z,100.00
2023-02-24T13:57:31.244Z,100.00
2023-02-24T14:00:16.258Z,100.00
2023-02-24T14:02:44.407Z,100.00
2023-02-24T14:05:20.356Z,100.00
2023-02-24T14:07:50.103Z,100.00
2023-02-24T14:10:20.874Z,100.00
2023-02-24T14:12:49.865Z,100.00
2023-02-24T14:15:23.417Z,100.00
2023-02-24T14:18:01.545Z,100.00
2023-02-24T14:20:32.981Z,100.00
2023-02-24T14:23:01.478Z,100.00
2023-02-24T14:25:38.408Z,100.00
2023-02-24T14:28:06.027Z,100.00
2023-02-24T14:30:39.176Z,100.00
2023-02-24T14:33:08.603Z,100.00
2023-02-24T14:35:47.274Z,100.00
2023-02-24T14:38:35.589Z,100.00
2023-02-24T14:41:05.277Z,100.00
2023-02-24T14:43:32.859Z,100.00
2023-02-24T14:46:05.647Z,100.00
2023-02-24T14:48:32.966Z,100.00
2023-02-24T14:51:09.717Z,100.00
2023-02-24T14:53:48.814Z,100.00
2023-02-24T14:56:16.863Z,100.00
2023-02-24T14:58:52.450Z,100.00
2023-02-24T15:04:54.349Z,100.00
2023-02-24T15:07:30.272Z,100.00
2023-02-24T15:09:58.759Z,100.00
2023-02-24T15:12:35.163Z,100.00
2023-02-24T15:15:14.660Z,100.00
2023-02-24T15:17:41.564Z,100.00
2023-02-24T15:20:35.245Z,100.00
2023-02-24T15:23:02.785Z,100.00
2023-02-24T15:25:42.982Z,100.00
2023-02-24T15:28:31.083Z,100.00
2023-02-24T15:31:18.663Z,100.00
2023-02-24T15:33:54.469Z,100.00
2023-02-24T15:36:25.824Z,100.00
2023-02-24T15:38:55.269Z,100.00
2023-02-24T15:41:23.029Z,100.00
2023-02-24T15:43:53.275Z,100.00
2023-02-24T15:46:34.827Z,100.00
2023-02-24T15:49:03.410Z,100.00
2023-02-24T15:51:48.239Z,100.00
2023-02-24T15:54:37.768Z,100.00
2023-02-24T15:57:06.226Z,100.00
2023-02-24T15:59:33.101Z,100.00
2023-02-24T16:02:00.226Z,100.00
2023-02-24T16:04:27.873Z,100.00
2023-02-24T16:06:57.665Z,100.00
2023-02-24T16:09:37.176Z,100.00
2023-02-24T16:12:35.193Z,100.00
2023-02-24T16:15:06.019Z,100.00
2023-02-24T16:17:35.012Z,100.00
2023-02-24T16:20:03.554Z,100.00
2023-02-24T16:22:30.858Z,100.00
2023-02-24T16:24:57.987Z,100.00
2023-02-24T16:27:27.409Z,100.00
2023-02-24T16:29:54.227Z,100.00
2023-02-24T16:32:23.574Z,100.00
2023-02-24T16:34:50.614Z,100.00
2023-02-24T16:37:23.594Z,100.00
2023-02-24T16:39:50.544Z,100.00
2023-02-24T16:42:19.678Z,100.00
2023-02-24T16:44:50.772Z,100.00
2023-02-24T16:47:22.831Z,100.00
2023-02-24T16:49:50.741Z,100.00
2023-02-24T16:52:22.971Z,100.00
2023-02-24T16:54:49.830Z,100.00
2023-02-24T16:57:17.117Z,100.00
2023-02-24T16:59:44.047Z,100.00
2023-02-24T17:02:20.624Z,100.00
2023-02-24T17:04:48.032Z,100.00
2023-02-24T17:07:16.296Z,100.00
2023-02-24T17:09:43.369Z,100.00
2023-02-24T17:12:15.551Z,100.00
2023-02-24T17:14:42.536Z,100.00
2023-02-24T17:17:14.805Z,100.00
2023-02-24T17:19:41.744Z,100.00
2023-02-24T17:22:10.304Z,100.00
2023-02-24T17:24:37.231Z,100.00
2023-02-24T17:27:04.518Z,100.00
2023-02-24T17:29:31.478Z,100.00
2023-02-24T17:31:59.174Z,100.00
2023-02-24T17:34:26.288Z,100.00
2023-02-24T17:36:53.551Z,100.00
2023-02-24T17:39:20.543Z,100.00
2023-02-24T17:41:48.159Z,100.00
2023-02-24T17:44:15.148Z,100.00
2023-02-24T17:46:42.327Z,100.00
2023-02-24T17:49:09.344Z,100.00
2023-02-24T17:51:36.584Z,100.00
2023-02-24T17:54:03.800Z,100.00
2023-02-24T17:56:31.049Z,100.00
2023-02-24T17:59:01.050Z,100.00
2023-02-24T18:01:29.518Z,100.00
2023-02-24T18:03:57.571Z,100.00
2023-02-24T18:06:25.389Z,100.00
2023-02-24T18:08:52.394Z,100.00
2023-02-24T18:11:20.406Z,100.00
2023-02-24T18:13:50.907Z,100.00
2023-02-24T18:16:18.636Z,100.00
2023-02-24T18:18:45.656Z,100.00
2023-02-24T18:21:12.930Z,100.00
2023-02-24T18:23:40.601Z,100.00
2023-02-24T18:26:10.124Z,100.00
2023-02-24T18:28:37.248Z,100.00
2023-02-24T18:31:13.468Z,100.00
2023-02-24T18:33:40.634Z,100.00
2023-02-24T18:36:08.503Z,100.00
2023-02-24T18:38:35.966Z,100.00
2023-02-24T18:41:14.270Z,100.00
2023-02-24T18:43:42.135Z,100.00
2023-02-24T18:46:13.407Z,100.00
2023-02-24T18:48:41.374Z,100.00
2023-02-24T18:51:08.709Z,100.00
2023-02-24T18:53:38.439Z,100.00
2023-02-24T18:56:08.888Z,100.00
2023-02-24T18:58:37.208Z,100.00
2023-02-24T19:01:20.448Z,100.00
2023-02-24T19:03:49.310Z,100.00
2023-02-24T19:06:21.653Z,100.00
2023-02-24T19:08:50.889Z,100.00
2023-02-24T19:11:20.198Z,100.00
2023-02-24T19:13:48.055Z,100.00
2023-02-24T19:16:17.161Z,100.00
2023-02-24T19:18:44.797Z,100.00
2023-02-24T19:21:13.501Z,100.00
2023-02-24T19:23:40.426Z,100.00
2023-02-24T19:26:15.945Z,100.00
2023-02-24T19:28:43.088Z,100.00
2023-02-24T19:31:20.416Z,100.00
2023-02-24T19:33:55.452Z,100.00
2023-02-24T19:48:56.552Z,100.00
2023-02-24T19:51:24.635Z,100.00
2023-02-24T19:53:56.848Z,100.00
2023-02-24T19:56:25.981Z,100.00
2023-02-24T19:58:54.747Z,100.00
2023-02-24T20:01:22.914Z,100.00
2023-02-24T20:03:50.559Z,100.00
2023-02-24T20:06:20.432Z,100.00
2023-02-24T20:08:47.877Z,100.00
2023-02-24T20:11:15.112Z,100.00
2023-02-24T20:13:41.982Z,100.00
2023-02-24T20:16:12.283Z,100.00
2023-02-24T20:18:41.320Z,100.00
2023-02-24T20:21:11.094Z,100.00
2023-02-24T20:23:39.174Z,100.00
2023-02-24T20:26:07.116Z,100.00
2023-02-24T20:28:34.036Z,100.00
2023-02-24T20:31:07.635Z,100.00
2023-02-24T20:33:34.680Z,100.00
2023-02-24T20:36:10.116Z,100.00
2023-02-24T20:38:37.815Z,100.00
2023-02-24T20:41:05.627Z,100.00
2023-02-24T20:43:33.027Z,100.00
2023-02-24T20:46:00.979Z,100.00
2023-02-24T20:48:29.974Z,100.00
2023-02-24T20:50:57.156Z,100.00
2023-02-24T20:53:24.047Z,100.00
2023-02-24T20:55:51.244Z,100.00
2023-02-24T20:58:18.080Z,100.00
2023-02-24T21:00:45.254Z,100.00
2023-02-24T21:03:12.413Z,100.00
2023-02-24T21:05:40.165Z,100.00
2023-02-24T21:08:07.183Z,100.00
2023-02-24T21:10:34.454Z,100.00
2023-02-24T21:13:01.535Z,100.00
2023-02-24T21:15:28.999Z,100.00
2023-02-24T21:17:55.991Z,100.00
2023-02-24T21:20:23.181Z,100.00
2023-02-24T21:22:50.087Z,100.00
2023-02-24T21:25:17.494Z,100.00
2023-02-24T21:28:10.632Z,100.00
2023-02-24T21:30:42.758Z,100.00
2023-02-24T21:33:09.795Z,100.00
2023-02-24T21:35:37.157Z,100.00
2023-02-24T21:38:05.688Z,100.00
2023-02-24T21:40:33.496Z,100.00
2023-02-24T21:43:00.365Z,100.00
2023-02-24T21:45:28.881Z,100.00
2023-02-24T21:47:56.081Z,100.00
2023-02-24T21:50:28.332Z,100.00
2023-02-24T21:52:55.967Z,100.00
2023-02-24T21:55:23.514Z,100.00
2023-02-24T21:57:50.457Z,100.00
2023-02-24T22:00:18.320Z,100.00
2023-02-24T22:02:54.625Z,100.00
2023-02-24T22:05:24.993Z,100.00
2023-02-24T22:07:52.294Z,100.00
2023-02-24T22:10:21.930Z,100.00
2023-02-24T22:12:49.342Z,100.00
2023-02-24T22:15:17.123Z,100.00
2023-02-24T22:17:43.997Z,100.00
2023-02-24T22:20:13.246Z,100.00
2023-02-24T22:22:42.218Z,100.00
2023-02-24T22:25:12.748Z,100.00
2023-02-24T22:27:39.935Z,100.00
2023-02-24T22:30:10.337Z,100.00
2023-02-24T22:32:37.722Z,100.00
2023-02-24T22:35:05.386Z,100.00
2023-02-24T22:37:33.553Z,100.00
2023-02-24T22:40:00.732Z,100.00
2023-02-24T22:42:27.620Z,100.00
2023-02-24T22:44:55.239Z,100.00
2023-02-24T22:47:22.191Z,100.00
2023-02-24T22:49:49.424Z,100.00
2023-02-24T22:52:18.133Z,100.00
2023-02-24T22:54:45.426Z,100.00
2023-02-24T22:57:15.388Z,100.00
2023-02-24T22:59:42.559Z,100.00
2023-02-24T23:02:09.975Z,100.00
2023-02-24T23:04:37.264Z,100.00
2023-02-24T23:07:04.238Z,100.00
2023-02-24T23:09:31.721Z,100.00
2023-02-24T23:11:58.644Z,100.00
2023-02-24T23:14:26.988Z,100.00
2023-02-24T23:16:55.863Z,100.00
2023-02-24T23:19:23.595Z,100.00
2023-02-24T23:21:53.092Z,100.00
2023-02-24T23:24:21.723Z,100.00
2023-02-24T23:26:54.521Z,100.00
2023-02-24T23:29:22.649Z,100.00
2023-02-24T23:31:50.090Z,100.00
2023-02-24T23:34:17.422Z,100.00
2023-02-24T23:36:46.600Z,100.00
2023-02-24T23:39:17.315Z,100.00
2023-02-24T23:41:44.376Z,100.00
2023-02-24T23:44:12.585Z,100.00
2023-02-24T23:46:41.742Z,100.00
2023-02-24T23:49:09.363Z,100.00
2023-02-24T23:51:47.579Z,100.00
2023-02-24T23:54:19.070Z,100.00
2023-02-24T23:56:46.569Z,100.00
2023-02-24T23:59:14.377Z,100.00
